Time;durP1;ratioP1;P1;durP2;ratioP2;P2;SDS_P1;SDS_P2;PMS_P1;PMS_P2;Temp;Humidity;BMP_temperature;BMP_pressure;BME280_temperature;BME280_humidity;BME280_pressure;Samples;Min_cycle;Max_cycle;Signal;HPM_P1;HPM_P2
2022/04/17 00:01:31;;;;;;;10.48;7.68;;;;;;;12.30;67.51;101315.50;4829129;29;20103;-77
2022/04/17 00:03:56;;;;;;;10.98;7.95;;;;;;;12.29;67.07;101317.44;4830637;29;20083;-78
2022/04/17 00:06:22;;;;;;;11.38;8.60;;;;;;;12.26;67.96;101312.44;4829628;29;20090;-77
2022/04/17 00:08:48;;;;;;;11.48;8.15;;;;;;;12.23;67.81;101315.81;4830821;29;20100;-77
2022/04/17 00:11:14;;;;;;;10.15;7.40;;;;;;;12.21;67.23;101314.44;4811359;29;20129;-78
2022/04/17 00:13:40;;;;;;;13.85;8.60;;;;;;;12.17;68.37;101310.53;4824423;29;20074;-77
2022/04/17 00:16:05;;;;;;;10.50;7.57;;;;;;;12.17;67.78;101304.97;4810730;29;20094;-77
2022/04/17 00:18:31;;;;;;;11.50;8.02;;;;;;;12.17;67.85;101302.19;4825363;29;20073;-78
2022/04/17 00:20:58;;;;;;;11.57;8.10;;;;;;;12.15;68.09;101298.88;4810569;29;20042;-78
2022/04/17 00:23:24;;;;;;;12.85;8.00;;;;;;;12.12;67.97;101293.84;4825824;29;20034;-77
2022/04/17 00:25:49;;;;;;;15.35;8.65;;;;;;;12.09;68.52;101300.84;4827732;29;20030;-77
2022/04/17 00:28:15;;;;;;;13.75;8.40;;;;;;;12.07;68.85;101292.75;4813846;29;20113;-78
2022/04/17 00:30:40;;;;;;;10.85;8.02;;;;;;;12.07;68.59;101291.94;4825775;29;20037;-78
2022/04/17 00:33:06;;;;;;;13.13;9.23;;;;;;;12.02;69.56;101294.72;4810333;29;20478;-78
2022/04/17 00:35:31;;;;;;;11.40;8.20;;;;;;;12.01;69.15;101291.13;4807221;29;20050;-78
2022/04/17 00:37:57;;;;;;;12.98;8.48;;;;;;;12.00;68.65;101285.81;4795674;29;20443;-78
2022/04/17 00:40:23;;;;;;;13.60;8.70;;;;;;;11.92;69.90;101280.84;4827109;29;20384;-78
2022/04/17 00:42:48;;;;;;;12.38;8.60;;;;;;;11.94;69.09;101292.53;4826227;29;20034;-78
2022/04/17 00:45:14;;;;;;;13.85;8.57;;;;;;;11.89;69.99;101284.19;4829239;29;20050;-78
2022/04/17 00:47:40;;;;;;;12.55;7.75;;;;;;;11.88;69.17;101282.53;4812559;29;20042;-77
2022/04/17 00:50:27;;;;;;;11.50;8.90;;;;;;;11.79;70.01;101285.06;4824320;29;20034;-79
2022/04/17 00:53:22;;;;;;;11.73;8.20;;;;;;;11.77;69.74;101282.53;4817621;29;20046;-80
2022/04/17 00:55:47;;;;;;;12.50;7.47;;;;;;;11.73;69.08;101275.88;4799717;29;20057;-79
2022/04/17 00:58:18;;;;;;;13.35;8.55;;;;;;;11.63;70.50;101279.53;4813918;29;20031;-79
2022/04/17 01:00:49;;;;;;;11.70;8.23;;;;;;;11.61;69.97;101276.19;4813305;29;20030;-79
2022/04/17 01:03:15;;;;;;;16.45;8.68;;;;;;;11.57;69.20;101282.63;4815386;29;20110;-79
2022/04/17 01:05:43;;;;;;;10.50;8.15;;;;;;;11.55;69.49;101282.06;4813773;29;20126;-79
2022/04/17 01:08:20;;;;;;;13.10;9.10;;;;;;;11.49;70.66;101278.44;4813363;29;20064;-79
2022/04/17 01:10:49;;;;;;;14.77;8.13;;;;;;;11.47;69.85;101271.50;4779814;29;20516;-79
2022/04/17 01:13:15;;;;;;;12.23;8.80;;;;;;;11.45;69.90;101271.78;4805985;29;20035;-78
2022/04/17 01:15:40;;;;;;;12.18;8.25;;;;;;;11.46;69.83;101264.28;4786572;29;20054;-79
2022/04/17 01:18:06;;;;;;;10.20;7.28;;;;;;;11.42;69.57;101263.97;4813155;29;20030;-79
2022/04/17 01:20:32;;;;;;;9.98;6.93;;;;;;;11.43;68.99;101265.66;4798791;29;20038;-79
2022/04/17 01:28:26;;;;;;;9.98;6.80;;;;;;;11.37;67.88;101256.50;4815453;29;20086;-77
2022/04/17 01:30:53;;;;;;;10.02;7.28;;;;;;;11.35;68.34;101258.72;4837400;29;20031;-78
2022/04/17 01:33:18;;;;;;;9.82;6.68;;;;;;;11.30;67.69;101252.34;4812671;29;20069;-78
2022/04/17 01:35:44;;;;;;;12.48;6.82;;;;;;;11.27;67.26;101255.69;4798298;29;20042;-78
2022/04/17 01:38:09;;;;;;;9.70;6.53;;;;;;;11.25;67.10;101253.16;4829253;29;20030;-77
2022/04/17 01:40:35;;;;;;;10.48;6.80;;;;;;;11.25;67.58;101246.78;4832067;29;20034;-78
2022/04/17 01:43:00;;;;;;;9.57;6.82;;;;;;;11.20;67.87;101247.66;4828187;29;20034;-77
2022/04/17 01:45:26;;;;;;;9.60;6.50;;;;;;;11.15;67.56;101247.66;4828886;29;20058;-77
2022/04/17 01:47:51;;;;;;;9.43;6.43;;;;;;;11.11;67.99;101240.97;4827963;29;20049;-77
2022/04/17 01:50:17;;;;;;;7.95;6.13;;;;;;;11.08;67.42;101241.53;4824531;29;20031;-78
2022/04/17 01:52:43;;;;;;;8.07;5.55;;;;;;;11.05;66.82;101244.88;4829331;29;20065;-77
2022/04/17 01:55:09;;;;;;;9.88;6.63;;;;;;;10.99;67.10;101244.03;4813174;29;20484;-77
2022/04/17 01:57:34;;;;;;;9.07;6.25;;;;;;;10.95;67.31;101240.16;4827651;29;20066;-78
2022/04/17 02:00:00;;;;;;;9.52;5.82;;;;;;;10.95;66.78;101237.38;4827960;29;20121;-77
2022/04/17 02:02:26;;;;;;;8.60;6.53;;;;;;;10.85;66.96;101238.22;4813008;29;20026;-78
2022/04/17 02:04:51;;;;;;;8.63;6.03;;;;;;;10.81;67.26;101230.69;4816758;29;20059;-78
2022/04/17 02:07:17;;;;;;;9.82;5.68;;;;;;;10.72;67.29;101230.41;4812717;29;20095;-78
2022/04/17 02:09:43;;;;;;;9.43;6.20;;;;;;;10.71;67.50;101234.31;4827275;29;20590;-78
2022/04/17 02:12:08;;;;;;;8.18;5.63;;;;;;;10.66;67.54;101235.16;4827058;29;20046;-77
2022/04/17 02:14:34;;;;;;;8.32;5.78;;;;;;;10.62;67.64;101227.66;4827473;29;20068;-77
2022/04/17 02:17:00;;;;;;;7.90;5.55;;;;;;;10.56;67.76;101217.63;4827470;29;20034;-78
2022/04/17 02:19:25;;;;;;;10.43;6.47;;;;;;;10.54;67.29;101217.94;4827308;29;20041;-77
2022/04/17 02:21:51;;;;;;;8.02;5.47;;;;;;;10.41;67.80;101215.69;4827344;29;20542;-77
2022/04/17 02:24:16;;;;;;;8.68;5.63;;;;;;;10.38;68.09;101214.28;4828602;29;20034;-76
2022/04/17 02:26:42;;;;;;;8.15;6.20;;;;;;;10.34;67.83;101204.03;4815741;29;20115;-77
2022/04/17 02:29:07;;;;;;;8.30;6.00;;;;;;;10.27;68.00;101198.72;4831173;29;20034;-77
2022/04/17 02:31:33;;;;;;;9.15;6.32;;;;;;;10.24;68.23;101204.81;4812226;29;20038;-77
2022/04/17 02:33:59;;;;;;;8.38;6.07;;;;;;;10.20;68.04;101207.31;4826967;29;20095;-77
2022/04/17 02:36:24;;;;;;;8.75;5.82;;;;;;;10.18;68.21;101203.13;4828599;29;20038;-77
2022/04/17 02:38:50;;;;;;;9.07;6.22;;;;;;;10.12;68.37;101205.06;4828279;29;20038;-76
2022/04/17 02:41:15;;;;;;;9.68;6.78;;;;;;;10.07;68.83;101200.31;4828046;29;20031;-76
2022/04/17 02:43:41;;;;;;;8.75;6.40;;;;;;;10.04;68.69;101203.66;4808692;29;20026;-76
2022/04/17 02:46:06;;;;;;;10.45;7.28;;;;;;;10.03;69.55;101193.66;4826935;29;20053;-76
2022/04/17 02:48:32;;;;;;;11.50;7.28;;;;;;;9.99;70.24;101198.09;4826861;29;20038;-76
2022/04/17 02:50:58;;;;;;;12.77;7.90;;;;;;;9.93;70.79;101193.63;4816889;29;20066;-76
2022/04/17 02:53:24;;;;;;;10.10;7.32;;;;;;;9.90;70.93;101194.19;4831175;29;20037;-76
2022/04/17 02:55:50;;;;;;;11.38;7.65;;;;;;;9.86;70.98;101184.72;4827278;29;20046;-77
2022/04/17 02:58:16;;;;;;;12.23;7.78;;;;;;;9.84;71.36;101182.22;4828463;29;20038;-76
2022/04/17 03:06:11;;;;;;;10.65;7.28;;;;;;;9.78;71.21;101188.06;4816634;29;20059;-76
2022/04/17 03:08:40;;;;;;;10.23;6.85;;;;;;;9.77;70.48;101187.19;4826703;29;20041;-76
2022/04/17 03:11:05;;;;;;;12.68;8.50;;;;;;;9.73;71.94;101182.47;4827152;29;20048;-76
2022/04/17 03:13:31;;;;;;;9.68;6.53;;;;;;;9.75;70.53;101185.78;4827839;29;20054;-76
2022/04/17 03:15:56;;;;;;;11.65;6.78;;;;;;;9.76;70.27;101181.94;4828165;29;20037;-76
2022/04/17 03:18:22;;;;;;;11.88;6.72;;;;;;;9.74;70.35;101184.97;4830978;29;20064;-76
2022/04/17 03:20:47;;;;;;;8.23;6.07;;;;;;;9.74;69.48;101178.59;4827691;29;20027;-76
2022/04/17 03:23:14;;;;;;;9.35;6.35;;;;;;;9.74;69.21;101175.81;4827731;29;20046;-76
2022/04/17 03:25:40;;;;;;;9.10;6.75;;;;;;;9.71;69.03;101179.97;4793880;29;20087;-76
2022/04/17 03:28:06;;;;;;;11.00;6.80;;;;;;;9.68;69.14;101185.22;4804460;29;20060;-76
2022/04/17 03:30:31;;;;;;;9.30;6.50;;;;;;;9.67;69.04;101180.75;4827299;29;20068;-76
2022/04/17 03:32:57;;;;;;;12.30;7.10;;;;;;;9.60;70.29;101187.41;4828377;29;20034;-76
2022/04/17 03:35:23;;;;;;;10.35;6.22;;;;;;;9.56;69.75;101183.53;4829765;29;20403;-76
2022/04/17 03:37:48;;;;;;;9.57;6.40;;;;;;;9.54;69.44;101174.63;4814082;29;20038;-76
2022/04/17 03:40:16;;;;;;;8.57;6.50;;;;;;;9.50;69.60;101190.16;4814755;29;20035;-76
2022/04/17 03:42:41;;;;;;;7.90;5.82;;;;;;;9.47;69.36;101184.28;4829610;29;20030;-76
2022/04/17 03:45:08;;;;;;;9.13;5.90;;;;;;;9.44;69.47;101182.91;4825924;29;20050;-76
2022/04/17 03:47:35;;;;;;;8.10;5.70;;;;;;;9.43;69.90;101177.63;4811098;29;20425;-76
2022/04/17 03:50:00;;;;;;;8.52;6.20;;;;;;;9.38;69.76;101176.50;4810984;29;20090;-76
2022/04/17 03:52:26;;;;;;;10.80;6.25;;;;;;;9.36;69.84;101181.50;4823474;29;20034;-76
2022/04/17 03:54:53;;;;;;;10.18;6.80;;;;;;;9.34;70.00;101171.78;4827255;29;20412;-76
2022/04/17 03:57:18;;;;;;;8.98;6.30;;;;;;;9.32;70.31;101176.75;4826076;29;20041;-76
2022/04/17 03:59:44;;;;;;;9.55;6.78;;;;;;;9.30;69.95;101174.22;4841461;29;20067;-76
2022/04/17 04:02:09;;;;;;;9.18;6.20;;;;;;;9.24;70.29;101168.94;4826044;29;20039;-76
2022/04/17 04:04:35;;;;;;;9.90;6.78;;;;;;;9.21;70.31;101170.31;4827730;29;20034;-76
2022/04/17 04:07:01;;;;;;;9.18;6.07;;;;;;;9.22;70.30;101171.13;4830555;29;20030;-76
2022/04/17 04:09:26;;;;;;;9.43;6.63;;;;;;;9.21;70.28;101175.03;4830785;29;20109;-76
2022/04/17 04:11:52;;;;;;;8.73;5.80;;;;;;;9.21;70.11;101169.47;4826671;29;20042;-76
2022/04/17 04:14:17;;;;;;;9.70;5.93;;;;;;;9.15;70.22;101169.44;4810985;29;20528;-76
2022/04/17 04:16:43;;;;;;;7.70;5.95;;;;;;;9.11;70.08;101171.09;4810844;29;20041;-76
2022/04/17 04:19:13;;;;;;;9.50;5.70;;;;;;;9.12;70.52;101167.22;4795583;29;20392;-76
2022/04/17 04:21:47;;;;;;;9.38;5.38;;;;;;;9.07;70.55;101164.41;4826821;29;20041;-76
2022/04/17 04:24:14;;;;;;;8.13;5.47;;;;;;;9.04;70.30;101155.81;4803938;29;20039;-76
2022/04/17 04:26:41;;;;;;;8.90;5.55;;;;;;;9.02;70.14;101161.59;4823339;29;20108;-76
2022/04/17 04:29:07;;;;;;;7.57;5.70;;;;;;;9.01;70.39;101159.13;4831663;29;20046;-76
2022/04/17 04:31:32;;;;;;;8.38;5.38;;;;;;;8.99;70.18;101151.06;4833246;29;20034;-76
2022/04/17 04:33:58;;;;;;;10.23;6.05;;;;;;;8.94;70.39;101153.78;4830062;29;20035;-76
2022/04/17 04:36:24;;;;;;;7.05;5.57;;;;;;;8.94;70.55;101153.78;4829224;29;20413;-76
2022/04/17 04:38:49;;;;;;;7.82;5.40;;;;;;;8.87;70.75;101158.75;4829326;29;20038;-76
2022/04/17 04:41:15;;;;;;;7.68;5.68;;;;;;;8.82;70.50;101144.88;4831430;29;20038;-76
2022/04/17 04:43:40;;;;;;;8.85;5.60;;;;;;;8.80;70.78;101153.44;4817116;29;20036;-76
2022/04/17 04:46:06;;;;;;;9.95;5.43;;;;;;;8.77;70.54;101153.13;4814045;29;20030;-76
2022/04/17 04:51:21;;;;;;;8.35;5.55;;;;;;;8.67;70.92;101146.44;4816652;29;20045;-76
2022/04/17 04:53:47;;;;;;;7.80;5.13;;;;;;;8.62;71.13;101149.16;4831709;29;20042;-76
2022/04/17 04:56:13;;;;;;;8.07;5.32;;;;;;;8.61;71.15;101154.94;4832493;29;20058;-76
2022/04/17 04:58:38;;;;;;;7.75;5.40;;;;;;;8.54;71.09;101157.97;4828698;29;20480;-76
2022/04/17 05:01:04;;;;;;;7.82;5.28;;;;;;;8.61;71.04;101166.88;4829697;29;20030;-76
2022/04/17 05:03:29;;;;;;;8.35;5.63;;;;;;;8.53;71.02;101169.31;4828509;29;20034;-76
2022/04/17 05:05:55;;;;;;;7.40;5.10;;;;;;;8.49;71.41;101161.50;4828733;29;20034;-76
2022/04/17 05:08:21;;;;;;;7.30;5.30;;;;;;;8.44;71.42;101161.50;4829786;29;20041;-76
2022/04/17 05:10:47;;;;;;;8.35;5.70;;;;;;;8.42;71.68;101160.09;4796066;29;20055;-76
2022/04/17 05:13:13;;;;;;;8.13;5.47;;;;;;;8.37;71.87;101168.31;4810731;29;20047;-76
2022/04/17 05:15:41;;;;;;;7.45;5.28;;;;;;;8.39;71.97;101166.97;4825962;29;20058;-77
2022/04/17 05:18:07;;;;;;;7.72;5.32;;;;;;;8.38;72.22;101162.50;4806215;29;20100;-76
2022/04/17 05:20:33;;;;;;;6.63;5.07;;;;;;;8.36;72.17;101163.84;4802718;29;20030;-76
2022/04/17 05:23:15;;;;;;;8.40;5.38;;;;;;;8.32;72.39;101162.72;4807115;29;20050;-76
2022/04/17 05:25:45;;;;;;;8.90;5.40;;;;;;;8.28;71.95;101166.00;4828564;29;20515;-76
2022/04/17 05:28:10;;;;;;;9.05;5.45;;;;;;;8.30;72.56;101165.75;4810331;29;20097;-76
2022/04/17 05:30:36;;;;;;;8.60;5.47;;;;;;;8.36;72.29;101164.72;4827864;29;20035;-76
2022/04/17 05:33:01;;;;;;;8.52;5.55;;;;;;;8.31;72.46;101164.66;4827979;29;20042;-76
2022/04/17 05:35:27;;;;;;;7.10;5.30;;;;;;;8.34;72.93;101166.06;4827803;29;20046;-76
2022/04/17 05:37:52;;;;;;;8.02;5.22;;;;;;;8.38;72.89;101161.66;4827702;29;20437;-76
2022/04/17 05:40:18;;;;;;;8.40;5.60;;;;;;;8.43;73.68;101164.50;4812922;29;20061;-76
2022/04/17 05:42:43;;;;;;;9.30;5.30;;;;;;;8.49;73.40;101164.28;4828181;29;20045;-76
2022/04/17 05:45:09;;;;;;;7.85;6.20;;;;;;;8.58;73.74;101161.03;4812717;29;20043;-76
2022/04/17 05:47:35;;;;;;;8.23;6.07;;;;;;;8.61;75.23;101158.59;4813561;29;20026;-76
2022/04/17 05:50:01;;;;;;;10.30;6.15;;;;;;;8.64;74.64;101160.00;4816006;29;20042;-76
2022/04/17 05:52:27;;;;;;;9.32;5.97;;;;;;;8.72;74.48;101157.56;4814523;29;20041;-76
2022/04/17 05:54:52;;;;;;;10.68;6.60;;;;;;;8.80;74.56;101158.13;4812717;29;20039;-76
2022/04/17 05:57:18;;;;;;;11.10;7.00;;;;;;;8.86;75.74;101151.53;4827652;29;20038;-76
2022/04/17 05:59:44;;;;;;;10.13;7.43;;;;;;;8.90;77.39;101153.50;4827933;29;20034;-76
2022/04/17 06:02:13;;;;;;;11.35;7.30;;;;;;;9.02;75.16;101153.28;4812473;29;20395;-76
2022/04/17 06:04:38;;;;;;;9.18;7.00;;;;;;;9.07;75.42;101156.09;4828830;29;20059;-76
2022/04/17 06:07:04;;;;;;;10.48;6.68;;;;;;;9.14;74.71;101148.41;4828892;29;20556;-75
2022/04/17 06:09:29;;;;;;;10.43;6.78;;;;;;;9.21;73.90;101141.78;4828659;29;20038;-76
2022/04/17 06:11:55;;;;;;;10.70;7.38;;;;;;;9.27;75.02;101135.16;4827596;29;20034;-76
2022/04/17 06:14:20;;;;;;;8.95;6.47;;;;;;;9.33;73.85;101137.69;4809426;29;20039;-76
2022/04/17 06:16:47;;;;;;;9.75;6.95;;;;;;;9.41;73.71;101136.31;4812293;29;20034;-76
2022/04/17 06:19:13;;;;;;;10.25;6.88;;;;;;;9.50;74.51;101143.03;4812311;29;20066;-76
2022/04/17 06:21:40;;;;;;;11.02;7.85;;;;;;;9.57;77.63;101140.81;4828972;29;20035;-76
2022/04/17 06:24:05;;;;;;;8.68;6.60;;;;;;;9.68;76.20;101138.06;4831300;29;20026;-76
2022/04/17 06:26:32;;;;;;;9.90;7.13;;;;;;;9.80;76.02;101138.66;4827952;29;20396;-76
2022/04/17 06:29:03;;;;;;;10.02;6.57;;;;;;;9.94;76.57;101142.56;4826319;29;20035;-76
2022/04/17 06:31:28;;;;;;;10.88;7.07;;;;;;;10.10;75.68;101137.88;4820736;29;20180;-76
2022/04/17 06:33:54;;;;;;;8.98;6.38;;;;;;;10.27;74.46;101137.66;4842144;29;20035;-76
2022/04/17 06:36:19;;;;;;;10.30;7.05;;;;;;;10.44;75.65;101138.19;4812092;29;20553;-77
2022/04/17 06:38:46;;;;;;;7.55;5.03;;;;;;;10.64;72.87;101137.38;4827185;29;20049;-76
2022/04/17 06:41:11;;;;;;;7.53;5.40;;;;;;;10.84;72.17;101144.84;4828337;29;20424;-76
2022/04/17 06:43:37;;;;;;;5.88;4.22;;;;;;;11.06;71.70;101143.69;4827187;29;20038;-77
2022/04/17 06:46:02;;;;;;;5.22;4.30;;;;;;;11.25;70.12;101130.81;4827011;29;20035;-77
2022/04/17 06:48:28;;;;;;;7.93;4.93;;;;;;;11.47;70.20;101126.88;4811582;29;20404;-76
2022/04/17 06:50:54;;;;;;;7.13;4.57;;;;;;;11.67;69.65;101131.47;4827234;29;20041;-77
2022/04/17 06:53:20;;;;;;;6.93;4.18;;;;;;;11.87;68.91;101139.78;4828047;29;20038;-76
2022/04/17 06:55:47;;;;;;;4.60;4.10;;;;;;;12.07;68.11;101130.44;4830584;29;20393;-77
2022/04/17 06:58:12;;;;;;;4.82;3.92;;;;;;;12.22;67.77;101138.69;4828651;29;20038;-77
2022/04/17 07:00:38;;;;;;;4.65;3.45;;;;;;;12.43;66.09;101136.59;4827823;29;20034;-77
2022/04/17 07:03:04;;;;;;;5.72;3.58;;;;;;;12.61;66.59;101139.75;4826599;29;20039;-77
2022/04/17 07:05:29;;;;;;;6.30;3.88;;;;;;;12.78;65.72;101136.53;4826786;29;20085;-77
2022/04/17 07:07:59;;;;;;;4.72;3.47;;;;;;;12.92;64.91;101123.56;4828028;29;20090;-77
2022/04/17 07:10:25;;;;;;;4.68;3.03;;;;;;;13.11;64.03;101126.44;4827764;29;20045;-77
2022/04/17 07:12:52;;;;;;;3.92;3.17;;;;;;;13.26;63.42;101125.44;4826607;29;20038;-77
2022/04/17 07:15:19;;;;;;;5.32;3.30;;;;;;;13.46;61.56;101124.41;4827276;29;20038;-77
2022/04/17 07:17:45;;;;;;;4.10;3.10;;;;;;;13.58;60.84;101113.63;4815108;29;20030;-77
2022/04/17 07:20:11;;;;;;;3.10;2.78;;;;;;;13.71;61.20;101123.22;4811115;29;20041;-77
2022/04/17 07:22:37;;;;;;;4.57;3.05;;;;;;;13.81;59.56;101117.47;4827863;29;20034;-77
2022/04/17 07:25:03;;;;;;;4.80;3.05;;;;;;;13.92;59.81;101112.59;4784682;29;20114;-77
2022/04/17 07:27:34;;;;;;;3.85;2.90;;;;;;;14.03;60.27;101119.66;4826329;29;20403;-77
2022/04/17 07:29:59;;;;;;;3.75;3.22;;;;;;;14.12;59.52;101117.03;4826726;29;20026;-77
2022/04/17 07:32:25;;;;;;;4.95;3.28;;;;;;;14.18;58.01;101115.81;4825685;29;20034;-77
2022/04/17 07:34:50;;;;;;;4.38;3.17;;;;;;;14.30;57.77;101113.38;4827198;29;20081;-77
2022/04/17 07:37:24;;;;;;;6.07;3.10;;;;;;;14.34;56.91;101108.84;4811204;29;20034;-78
2022/04/17 07:39:50;;;;;;;5.28;3.05;;;;;;;14.42;56.65;101113.72;4826464;29;20038;-78
2022/04/17 07:42:19;;;;;;;4.78;3.00;;;;;;;14.44;55.97;101103.09;4826354;29;20095;-78
2022/04/17 07:44:44;;;;;;;4.75;3.40;;;;;;;14.55;56.20;101105.75;4826181;29;20043;-78
2022/04/17 07:47:10;;;;;;;5.78;3.15;;;;;;;14.58;56.13;101103.16;4810875;29;20095;-77
2022/04/17 07:49:35;;;;;;;4.95;3.17;;;;;;;14.62;55.89;101103.38;4784856;29;20041;-77
2022/04/17 07:52:04;;;;;;;3.30;2.92;;;;;;;14.70;56.22;101092.31;4807832;29;20062;-78
2022/04/17 07:54:29;;;;;;;4.03;3.20;;;;;;;14.78;55.28;101101.97;4789885;29;20042;-78
2022/04/17 07:56:56;;;;;;;5.95;3.22;;;;;;;14.88;55.32;101096.19;4802745;29;20030;-79
2022/04/17 07:59:24;;;;;;;4.90;2.83;;;;;;;14.95;55.46;101096.59;4826431;29;20480;-79
2022/04/17 08:01:50;;;;;;;3.42;2.88;;;;;;;15.05;55.34;101091.94;4810977;29;20391;-79
2022/04/17 08:04:19;;;;;;;6.53;2.70;;;;;;;15.11;56.15;101090.69;4825789;29;20084;-79
2022/04/17 08:06:45;;;;;;;5.03;3.05;;;;;;;15.18;56.98;101086.34;4826298;29;20077;-78
2022/04/17 08:09:10;;;;;;;4.45;3.05;;;;;;;15.28;56.70;101079.72;4795129;29;20465;-79
2022/04/17 08:11:37;;;;;;;4.43;3.10;;;;;;;15.41;56.22;101081.66;4826015;29;20042;-78
2022/04/17 08:14:05;;;;;;;4.32;2.90;;;;;;;15.56;55.20;101074.06;4811360;29;20558;-76
2022/04/17 08:16:31;;;;;;;4.43;2.95;;;;;;;15.60;54.25;101072.28;4809873;29;20105;-78
2022/04/17 08:18:57;;;;;;;4.45;2.63;;;;;;;15.71;54.40;101073.78;4809523;29;20034;-78
2022/04/17 08:21:22;;;;;;;3.65;2.40;;;;;;;15.81;55.59;101067.91;4796870;29;20027;-78
2022/04/17 08:23:51;;;;;;;5.90;2.80;;;;;;;15.92;55.55;101070.50;4826698;29;20034;-83
2022/04/17 08:26:38;;;;;;;3.80;2.80;;;;;;;16.07;54.31;101070.09;4825671;29;20507;-82
2022/04/17 08:33:41;;;;;;;5.93;2.83;;;;;;;16.40;54.01;101064.25;4807962;29;20110;-79
2022/04/17 08:37:01;;;;;;;;;;;;;;;;;;;;;
2022/04/17 08:48:12;;;;;;;3.47;2.83;;;;;;;17.12;51.57;101058.34;4656636;30;20077;-77
2022/04/17 09:02:18;;;;;;;4.15;2.20;;;;;;;17.75;48.62;101046.94;4663438;30;20390;-79
2022/04/17 09:08:21;;;;;;;2.63;2.20;;;;;;;17.88;48.70;101042.31;4676846;30;20476;-82
2022/04/17 09:31:10;;;;;;;3.42;2.28;;;;;;;18.80;47.63;101025.94;4831276;29;20066;-72
2022/04/17 09:33:36;;;;;;;2.67;1.90;;;;;;;18.91;48.09;101024.41;4811432;29;20027;-72
2022/04/17 09:36:02;;;;;;;2.33;1.65;;;;;;;19.08;47.81;101020.69;4809051;29;20042;-72
2022/04/17 09:38:30;;;;;;;2.20;1.80;;;;;;;19.22;48.09;101022.44;4798300;29;20101;-78
2022/04/17 09:41:06;;;;;;;2.40;1.83;;;;;;;19.37;47.90;101028.31;4815758;29;20037;-77
2022/04/17 09:43:33;;;;;;;4.97;2.10;;;;;;;19.42;46.33;101027.31;4826069;29;20101;-77
2022/04/17 09:45:59;;;;;;;3.42;2.35;;;;;;;19.43;46.44;101018.50;4816118;29;20114;-77
2022/04/17 09:48:25;;;;;;;2.45;2.05;;;;;;;19.42;45.91;101014.03;4815854;29;20044;-77
2022/04/17 09:50:51;;;;;;;2.95;2.00;;;;;;;19.56;45.25;101012.97;4831046;29;20033;-78
2022/04/17 09:53:30;;;;;;;2.55;1.67;;;;;;;19.70;45.02;101012.72;4831231;29;20037;-77
2022/04/17 09:56:10;;;;;;;3.70;1.42;;;;;;;19.85;45.24;101014.91;4831173;29;20057;-77
2022/04/17 09:58:36;;;;;;;3.58;1.70;;;;;;;19.88;44.50;101013.38;4799576;29;20038;-77
2022/04/17 10:01:03;;;;;;;1.92;1.60;;;;;;;19.96;44.25;101010.47;4800646;29;20038;-77
2022/04/17 10:03:29;;;;;;;3.85;1.92;;;;;;;20.07;45.04;101002.44;4813363;29;20086;-77
2022/04/17 10:05:55;;;;;;;2.75;1.75;;;;;;;20.20;44.23;101006.94;4798122;29;20034;-77
2022/04/17 10:08:25;;;;;;;2.28;1.83;;;;;;;20.21;44.56;101005.75;4828874;29;20031;-77
2022/04/17 10:10:51;;;;;;;4.75;2.00;;;;;;;20.29;44.64;100999.22;4783356;29;20114;-77
2022/04/17 10:13:18;;;;;;;1.75;1.45;;;;;;;20.40;44.56;101004.41;4782789;29;20038;-77
2022/04/17 10:15:44;;;;;;;2.67;1.85;;;;;;;20.52;44.41;100996.78;4808829;29;20488;-67
2022/04/17 10:18:09;;;;;;;3.67;2.00;;;;;;;20.58;43.87;100999.41;4827064;29;20245;-69
2022/04/17 10:20:35;;;;;;;3.45;1.60;;;;;;;20.71;44.31;100984.97;4828619;29;20038;-70
2022/04/17 10:23:03;;;;;;;2.85;1.50;;;;;;;20.74;42.80;100987.09;4828676;29;20396;-70
2022/04/17 10:25:28;;;;;;;2.40;1.65;;;;;;;20.93;42.24;100983.69;4828322;29;20041;-70
2022/04/17 10:27:57;;;;;;;1.75;1.42;;;;;;;21.06;42.04;100976.06;4828458;29;20404;-69
2022/04/17 10:30:54;;;;;;;1.85;1.58;;;;;;;21.19;41.76;100976.84;4795997;29;20038;-69
2022/04/17 10:33:33;;;;;;;2.92;1.58;;;;;;;21.20;41.49;100976.50;4802638;29;20048;-69
2022/04/17 10:36:20;;;;;;;2.72;1.85;;;;;;;21.27;41.23;100975.06;4812128;29;20065;-71
2022/04/17 10:38:46;;;;;;;2.92;1.38;;;;;;;21.34;40.75;100969.63;4800350;29;20117;-71
2022/04/17 10:41:14;;;;;;;1.60;1.38;;;;;;;21.42;41.14;100975.19;4812084;29;20034;-71
2022/04/17 10:43:43;;;;;;;2.40;1.45;;;;;;;21.50;41.67;100972.56;4797912;29;20031;-71
2022/04/17 10:46:10;;;;;;;2.42;1.42;;;;;;;21.63;40.28;100965.72;4828161;29;20042;-70
2022/04/17 10:48:48;;;;;;;1.98;1.60;;;;;;;21.70;39.69;100970.75;4828112;29;20042;-68
2022/04/17 10:51:15;;;;;;;2.53;1.38;;;;;;;21.81;39.62;100960.56;4828290;29;20038;-68
2022/04/17 10:53:50;;;;;;;2.08;1.30;;;;;;;21.94;39.70;100962.16;4828176;29;20429;-70
2022/04/17 10:56:15;;;;;;;1.58;1.10;;;;;;;22.04;38.70;100958.84;4828054;29;20048;-69
2022/04/17 10:59:03;;;;;;;1.98;1.15;;;;;;;22.17;38.29;100958.75;4811793;29;20030;-70
2022/04/17 11:01:44;;;;;;;1.38;0.90;;;;;;;22.25;38.24;100952.13;4816672;29;20050;-69
2022/04/17 11:04:23;;;;;;;2.65;1.20;;;;;;;22.27;37.94;100944.13;4827758;29;20038;-70
2022/04/17 11:07:09;;;;;;;2.20;1.35;;;;;;;22.31;38.05;100942.19;4828013;29;20038;-70
2022/04/17 11:09:45;;;;;;;2.65;1.40;;;;;;;22.35;38.13;100942.31;4819544;29;20049;-70
2022/04/17 11:12:10;;;;;;;1.67;1.15;;;;;;;22.35;37.77;100931.81;4827744;29;20064;-71
2022/04/17 11:14:36;;;;;;;2.00;1.33;;;;;;;22.44;38.25;100932.44;4827728;29;20395;-68
2022/04/17 11:17:08;;;;;;;2.00;1.17;;;;;;;22.49;38.31;100934.19;4799168;29;20374;-71
2022/04/17 11:19:40;;;;;;;3.13;1.20;;;;;;;22.52;38.50;100922.94;4812070;29;20038;-71
2022/04/17 11:22:07;;;;;;;2.33;1.50;;;;;;;22.62;38.56;100920.75;4827761;29;20042;-71
2022/04/17 11:24:54;;;;;;;2.00;1.42;;;;;;;22.74;38.46;100912.16;4827771;29;20065;-71
2022/04/17 11:27:35;;;;;;;2.80;1.33;;;;;;;22.85;37.85;100907.59;4827661;29;20086;-71
2022/04/17 11:30:02;;;;;;;3.40;1.70;;;;;;;22.93;37.63;100898.06;4811651;29;20042;-68
2022/04/17 11:32:27;;;;;;;2.03;1.55;;;;;;;22.99;37.78;100904.28;4817874;29;20472;-68
2022/04/17 11:34:53;;;;;;;2.03;1.50;;;;;;;23.05;38.51;100894.31;4810610;29;20061;-70
2022/04/17 11:37:25;;;;;;;3.78;1.33;;;;;;;23.06;38.86;100895.13;4810794;29;20069;-69
2022/04/17 11:39:51;;;;;;;2.90;1.30;;;;;;;23.18;38.63;100895.03;4827494;29;20030;-71
2022/04/17 11:42:17;;;;;;;2.35;1.35;;;;;;;23.20;37.84;100884.94;4827580;29;20073;-72
2022/04/17 11:44:48;;;;;;;1.58;1.08;;;;;;;23.34;37.37;100884.41;4827465;29;20039;-71
2022/04/17 11:47:16;;;;;;;1.67;1.45;;;;;;;23.44;37.45;100879.38;4811224;29;20130;-70
2022/04/17 11:49:42;;;;;;;1.40;1.10;;;;;;;23.55;38.46;100880.41;4810660;29;20049;-71
2022/04/17 11:52:12;;;;;;;1.70;1.15;;;;;;;23.64;38.06;100878.97;4827554;29;20062;-71
2022/04/17 11:54:37;;;;;;;3.70;1.50;;;;;;;23.77;38.32;100879.69;4827369;29;20392;-71
2022/04/17 11:57:03;;;;;;;1.38;1.10;;;;;;;23.94;36.65;100869.06;4827439;29;20039;-71
2022/04/17 11:59:28;;;;;;;2.55;0.98;;;;;;;24.06;38.05;100875.34;4825800;29;20034;-71
2022/04/17 12:02:10;;;;;;;1.90;1.40;;;;;;;24.21;36.67;100873.59;4827273;29;20034;-71
2022/04/17 12:04:39;;;;;;;1.20;1.00;;;;;;;24.28;37.07;100859.53;4807357;29;20446;-71
2022/04/17 12:07:04;;;;;;;4.72;1.08;;;;;;;24.37;36.30;100858.44;4827188;29;20056;-71
2022/04/17 12:09:29;;;;;;;2.95;1.08;;;;;;;24.46;34.74;100854.19;4810506;29;20673;-71
2022/04/17 12:11:55;;;;;;;2.63;1.00;;;;;;;24.50;34.45;100855.06;4807456;29;20043;-71
2022/04/17 12:14:30;;;;;;;2.47;1.23;;;;;;;24.51;34.62;100847.34;4800764;29;20091;-71
2022/04/17 12:16:56;;;;;;;1.25;1.00;;;;;;;24.61;35.14;100838.19;4819281;29;20034;-71
2022/04/17 12:19:21;;;;;;;1.10;1.00;;;;;;;24.66;36.37;100846.41;4823340;29;20034;-71
2022/04/17 12:21:50;;;;;;;1.40;1.10;;;;;;;24.74;34.57;100835.97;4826802;29;20539;-71
2022/04/17 12:24:16;;;;;;;1.73;1.00;;;;;;;24.84;35.71;100838.13;4826990;29;20159;-71
2022/04/17 12:26:41;;;;;;;3.13;1.10;;;;;;;24.91;35.08;100840.28;4810257;29;20042;-71
2022/04/17 12:29:07;;;;;;;1.40;1.00;;;;;;;24.96;34.31;100837.06;4811190;29;20045;-71
2022/04/17 12:31:33;;;;;;;1.65;0.93;;;;;;;24.97;34.60;100827.34;4823675;29;20095;-71